Time;durP1;ratioP1;P1;durP2;ratioP2;P2;SDS_P1;SDS_P2;PMS_P1;PMS_P2;Temp;Humidity;BMP_temperature;BMP_pressure;BME280_temperature;BME280_humidity;BME280_pressure;Samples;Min_cycle;Max_cycle;Signal;HPM_P1;HPM_P2
2022/08/19 00:01:56;;;;;;;0.50;0.40;;;;;;;24.07;79.75;95082.53;5094865;28;20494;-56
2022/08/19 00:04:30;;;;;;;0.77;0.77;;;;;;;24.07;78.49;95082.53;5094476;28;20460;-56
2022/08/19 00:07:00;;;;;;;0.40;0.30;;;;;;;24.11;78.64;95082.66;5094351;28;20425;-56
2022/08/19 00:09:29;;;;;;;0.50;0.30;;;;;;;24.06;81.75;95085.63;5093868;28;20424;-55
2022/08/19 00:11:59;;;;;;;0.40;0.30;;;;;;;24.05;81.32;95082.13;5094312;28;20468;-56
2022/08/19 00:14:31;;;;;;;0.50;0.40;;;;;;;24.04;82.14;95080.53;5094245;28;20495;-56
2022/08/19 00:17:00;;;;;;;1.57;0.40;;;;;;;23.49;88.36;95075.63;5094448;28;20428;-55
2022/08/19 00:19:31;;;;;;;2.67;0.73;;;;;;;23.00;94.19;95073.44;5093994;28;20868;-56
2022/08/19 00:21:59;;;;;;;0.63;0.63;;;;;;;22.58;100.00;95084.06;5094140;28;20515;-56
2022/08/19 00:24:28;;;;;;;0.57;0.30;;;;;;;22.77;100.00;95083.34;5094439;28;20931;-56
2022/08/19 00:26:57;;;;;;;0.60;0.60;;;;;;;23.00;100.00;95072.66;5094157;28;20499;-56
2022/08/19 00:29:45;;;;;;;2.30;0.30;;;;;;;22.83;100.00;95073.03;5093915;28;20436;-56
2022/08/19 00:32:20;;;;;;;0.50;0.30;;;;;;;22.87;100.00;95071.22;5093909;28;20924;-56
2022/08/19 00:34:51;;;;;;;0.50;0.30;;;;;;;23.12;100.00;95067.13;5094135;28;20467;-56
2022/08/19 00:37:22;;;;;;;0.50;0.43;;;;;;;22.92;100.00;95065.53;5094074;28;20467;-56
2022/08/19 00:39:51;;;;;;;0.40;0.30;;;;;;;23.08;100.00;95052.75;5093835;28;20428;-56
2022/08/19 00:42:21;;;;;;;0.67;0.50;;;;;;;23.13;99.95;95034.31;5093686;28;20416;-56
2022/08/19 00:44:50;;;;;;;0.80;0.40;;;;;;;22.89;100.00;95050.03;5094031;28;20491;-56
2022/08/19 00:47:19;;;;;;;0.50;0.30;;;;;;;23.10;100.00;95043.13;5093603;28;20471;-56
2022/08/19 00:49:53;;;;;;;0.50;0.50;;;;;;;22.66;100.00;95041.81;5093651;28;20424;-56
2022/08/19 00:52:26;;;;;;;0.70;0.40;;;;;;;21.96;100.00;94978.81;5093524;28;20429;-56
2022/08/19 00:54:55;;;;;;;0.50;0.30;;;;;;;22.53;100.00;95040.31;5093337;28;20471;-56
2022/08/19 00:57:29;;;;;;;0.90;0.83;;;;;;;22.48;100.00;95043.28;5093444;28;20966;-56
2022/08/19 01:00:01;;;;;;;4.67;0.50;;;;;;;22.37;100.00;95043.03;5093673;28;20456;-56
2022/08/19 01:02:32;;;;;;;0.63;0.50;;;;;;;22.54;100.00;95048.06;5093596;28;20429;-56
2022/08/19 01:05:05;;;;;;;0.67;0.40;;;;;;;22.56;100.00;95048.50;5093303;28;20452;-56
2022/08/19 01:07:34;;;;;;;0.60;0.30;;;;;;;22.84;100.00;95059.19;5093528;28;20799;-56
2022/08/19 01:10:08;;;;;;;0.50;0.40;;;;;;;22.52;100.00;95058.44;5093233;28;20954;-56
2022/08/19 01:12:37;;;;;;;0.63;0.60;;;;;;;22.51;100.00;95061.50;5093086;28;20983;-56
2022/08/19 01:15:08;;;;;;;0.53;0.53;;;;;;;22.72;100.00;95065.47;5092838;28;20551;-56
2022/08/19 01:17:39;;;;;;;0.40;0.20;;;;;;;22.79;100.00;95064.88;5092571;28;20433;-56
2022/08/19 01:20:13;;;;;;;0.60;0.60;;;;;;;22.77;100.00;95063.66;5091925;28;20464;-56
2022/08/19 01:22:47;;;;;;;0.60;0.60;;;;;;;22.34;100.00;95064.56;5093298;28;20427;-56
2022/08/19 01:25:18;;;;;;;0.40;0.27;;;;;;;22.14;100.00;95009.69;5093205;28;20802;-56
2022/08/19 01:27:50;;;;;;;0.40;0.30;;;;;;;22.48;100.00;95048.69;5092907;28;20801;-56
2022/08/19 01:30:22;;;;;;;0.60;0.57;;;;;;;22.51;100.00;95037.19;5092747;28;20425;-56
2022/08/19 01:32:52;;;;;;;0.40;0.30;;;;;;;22.60;100.00;95046.66;5093101;28;20856;-56
2022/08/19 01:35:23;;;;;;;0.40;0.30;;;;;;;22.69;100.00;95041.88;5092687;28;20486;-56
2022/08/19 01:37:55;;;;;;;1.17;1.07;;;;;;;22.63;100.00;95058.72;5093017;28;20428;-56
2022/08/19 01:40:28;;;;;;;0.40;0.30;;;;;;;22.67;100.00;95063.06;5092678;28;20468;-56
2022/08/19 01:42:57;;;;;;;0.40;0.20;;;;;;;22.75;100.00;95062.09;5092864;28;20433;-56
2022/08/19 01:45:28;;;;;;;0.40;0.30;;;;;;;22.70;100.00;95073.16;5092619;28;20463;-56
2022/08/19 01:48:14;;;;;;;2.67;0.93;;;;;;;22.23;100.00;95006.81;5092656;28;20415;-56
2022/08/19 01:50:42;;;;;;;0.50;0.30;;;;;;;22.67;100.00;95064.97;5092533;28;20433;-56
2022/08/19 01:53:13;;;;;;;0.67;0.50;;;;;;;21.60;100.00;94917.00;5092798;28;20464;-56
2022/08/19 01:55:44;;;;;;;0.50;0.40;;;;;;;22.65;100.00;95073.44;5092301;28;20470;-56
2022/08/19 01:58:18;;;;;;;1.07;0.50;;;;;;;22.19;100.00;95079.59;5092629;28;20486;-56
2022/08/19 02:00:46;;;;;;;0.50;0.50;;;;;;;22.31;100.00;95070.66;5092271;28;20468;-57
2022/08/19 02:03:15;;;;;;;0.80;0.70;;;;;;;22.02;100.00;95066.47;5092690;28;20448;-56
2022/08/19 02:05:45;;;;;;;0.67;0.67;;;;;;;21.69;100.00;95064.03;5092528;28;20511;-56
2022/08/19 02:08:15;;;;;;;2.63;0.40;;;;;;;21.56;100.00;95059.81;5092477;28;20451;-56
2022/08/19 02:10:44;;;;;;;0.67;0.30;;;;;;;21.98;100.00;95057.50;5092186;28;20516;-56
2022/08/19 02:13:13;;;;;;;0.60;0.50;;;;;;;22.31;100.00;95057.94;5092145;28;20749;-56
2022/08/19 02:15:42;;;;;;;0.40;0.30;;;;;;;22.51;100.00;95054.19;5091960;28;20511;-56
2022/08/19 02:18:10;;;;;;;0.50;0.30;;;;;;;22.52;100.00;95050.31;5091894;28;20504;-56
2022/08/19 02:20:41;;;;;;;0.40;0.27;;;;;;;22.60;98.91;95048.56;5091924;28;20519;-56
2022/08/19 02:23:11;;;;;;;0.50;0.40;;;;;;;22.66;95.86;95037.19;5092089;28;20428;-57
2022/08/19 02:25:46;;;;;;;0.60;0.40;;;;;;;22.68;96.60;95042.22;5092244;28;20855;-56
2022/08/19 02:28:15;;;;;;;0.70;0.30;;;;;;;22.36;100.00;95046.88;5092380;28;20497;-56
2022/08/19 02:30:47;;;;;;;0.50;0.40;;;;;;;22.17;100.00;95057.59;5091974;28;20433;-56
2022/08/19 02:33:16;;;;;;;0.50;0.30;;;;;;;22.44;98.22;95061.34;5091938;28;20485;-56
2022/08/19 02:35:45;;;;;;;0.40;0.30;;;;;;;22.15;100.00;95059.84;5092115;28;20870;-56
2022/08/19 02:38:27;;;;;;;0.50;0.50;;;;;;;22.24;100.00;95046.94;5091926;28;20455;-56
2022/08/19 02:40:59;;;;;;;0.50;0.47;;;;;;;21.79;100.00;95057.34;5091993;28;20871;-56
2022/08/19 02:43:29;;;;;;;0.40;0.27;;;;;;;22.18;100.00;95051.06;5091893;28;20868;-56
2022/08/19 02:46:01;;;;;;;0.50;0.40;;;;;;;22.45;98.82;95052.88;5091618;28;20440;-56
2022/08/19 02:48:32;;;;;;;0.50;0.30;;;;;;;22.10;100.00;95052.03;5092058;28;20456;-56
2022/08/19 02:51:01;;;;;;;0.47;0.37;;;;;;;21.66;100.00;95035.06;5091764;28;20529;-56
2022/08/19 02:53:29;;;;;;;0.50;0.50;;;;;;;21.59;100.00;95061.06;5091703;28;20428;-56
2022/08/19 02:55:59;;;;;;;0.50;0.50;;;;;;;21.70;100.00;95056.72;5091918;28;20562;-56
2022/08/19 02:58:28;;;;;;;0.83;0.60;;;;;;;21.17;100.00;95058.75;5091771;28;20460;-56
2022/08/19 03:00:58;;;;;;;5.17;1.53;;;;;;;20.62;100.00;95067.47;5091643;28;20436;-57
2022/08/19 03:03:26;;;;;;;0.83;0.83;;;;;;;20.26;100.00;95076.34;5091941;28;20474;-57
2022/08/19 03:06:08;;;;;;;0.60;0.60;;;;;;;20.49;100.00;95071.28;5091631;28;20515;-56
2022/08/19 03:08:37;;;;;;;1.67;1.57;;;;;;;20.92;100.00;95076.09;5091614;28;20921;-56
2022/08/19 03:11:07;;;;;;;0.50;0.40;;;;;;;20.90;100.00;95073.72;5091390;28;20523;-56
2022/08/19 03:13:36;;;;;;;0.73;0.73;;;;;;;20.35;100.00;95017.03;5091222;28;20464;-56
2022/08/19 03:16:06;;;;;;;0.83;0.80;;;;;;;20.74;100.00;95077.47;5091805;28;20578;-56
2022/08/19 03:18:35;;;;;;;1.00;0.50;;;;;;;20.70;100.00;95077.34;5091154;28;20496;-56
2022/08/19 03:21:04;;;;;;;1.10;1.10;;;;;;;21.14;100.00;95042.47;5091767;28;20460;-56
2022/08/19 03:23:33;;;;;;;4.63;0.93;;;;;;;21.52;100.00;95030.09;5091391;28;20459;-56
2022/08/19 03:26:05;;;;;;;0.50;0.40;;;;;;;21.83;100.00;95052.84;5091748;28;20459;-56
2022/08/19 03:28:49;;;;;;;0.40;0.30;;;;;;;22.11;100.00;95083.28;5091629;28;20483;-56
2022/08/19 03:31:27;;;;;;;0.40;0.40;;;;;;;22.12;100.00;95074.84;5091738;28;20775;-56
2022/08/19 03:34:18;;;;;;;0.67;0.40;;;;;;;22.23;100.00;95072.41;5091187;28;20782;-56
2022/08/19 03:36:47;;;;;;;0.50;0.30;;;;;;;22.28;100.00;95084.84;5091214;28;20511;-56
2022/08/19 03:39:17;;;;;;;0.60;0.40;;;;;;;22.40;100.00;95088.25;5091633;28;20890;-56
2022/08/19 03:41:46;;;;;;;0.50;0.33;;;;;;;22.51;100.00;95089.28;5091314;28;20535;-55
2022/08/19 03:44:21;;;;;;;0.60;0.50;;;;;;;22.56;100.00;95091.72;5093887;28;20821;-56
2022/08/19 03:46:51;;;;;;;0.40;0.20;;;;;;;22.41;100.00;95099.84;5094824;28;20508;-55
2022/08/19 03:49:21;;;;;;;0.50;0.40;;;;;;;22.34;100.00;95100.44;5094604;28;20471;-55
2022/08/19 03:51:57;;;;;;;0.50;0.30;;;;;;;22.46;100.00;95094.97;5094732;28;20473;-56
2022/08/19 03:54:27;;;;;;;0.40;0.30;;;;;;;22.35;100.00;95107.41;5094350;28;20436;-56
2022/08/19 03:56:57;;;;;;;0.50;0.50;;;;;;;22.35;100.00;95110.09;5094649;28;20488;-56
2022/08/19 03:59:29;;;;;;;0.50;0.40;;;;;;;22.54;100.00;95112.88;5094272;28;20527;-56
2022/08/19 04:02:02;;;;;;;1.23;0.30;;;;;;;22.42;100.00;95101.38;5094278;28;20420;-56
2022/08/19 04:04:31;;;;;;;0.50;0.40;;;;;;;22.60;100.00;95108.00;5094173;28;20995;-56
2022/08/19 04:06:59;;;;;;;0.73;0.63;;;;;;;22.66;100.00;95117.44;5094537;28;20511;-56
2022/08/19 04:09:28;;;;;;;0.70;0.57;;;;;;;22.65;100.00;95097.75;5094083;28;20491;-56
2022/08/19 04:11:58;;;;;;;0.70;0.70;;;;;;;22.79;100.00;95115.44;5094418;28;20494;-56
2022/08/19 04:14:31;;;;;;;0.60;0.30;;;;;;;22.67;100.00;95119.78;5094058;28;20515;-56
2022/08/19 04:17:00;;;;;;;0.73;0.30;;;;;;;22.64;100.00;95093.47;5093854;28;20523;-55
2022/08/19 04:19:31;;;;;;;0.50;0.30;;;;;;;22.25;100.00;95012.66;5093766;28;20492;-55
2022/08/19 04:22:00;;;;;;;0.40;0.30;;;;;;;22.56;100.00;95115.25;5093870;28;20868;-55
2022/08/19 04:24:28;;;;;;;3.40;0.77;;;;;;;22.07;100.00;95133.69;5094150;28;20457;-55
2022/08/19 04:26:57;;;;;;;0.40;0.30;;;;;;;21.64;100.00;95133.63;5093834;28;20493;-55
2022/08/19 04:29:27;;;;;;;1.53;0.87;;;;;;;21.44;100.00;95130.78;5093749;28;20463;-55
2022/08/19 04:31:58;;;;;;;0.93;0.93;;;;;;;21.13;100.00;95133.31;5093960;28;20429;-56
2022/08/19 04:34:29;;;;;;;0.67;0.67;;;;;;;21.20;100.00;95136.22;5093838;28;20428;-56
2022/08/19 04:36:59;;;;;;;1.17;0.67;;;;;;;21.66;100.00;95132.16;5093520;28;20493;-56
2022/08/19 04:45:05;;;;;;;2.83;2.57;;;;;;;20.80;100.00;95140.75;5077686;28;20519;-56
2022/08/19 04:47:40;;;;;;;14.77;0.70;;;;;;;21.02;100.00;95126.81;5093681;28;20424;-55
2022/08/19 04:50:25;;;;;;;1.00;0.70;;;;;;;21.72;100.00;95122.69;5093264;28;20427;-55
2022/08/19 04:52:55;;;;;;;0.70;0.70;;;;;;;22.18;100.00;95123.16;5093494;28;20437;-56
2022/08/19 04:55:25;;;;;;;0.83;0.83;;;;;;;22.49;100.00;95139.41;5093065;28;20460;-56
2022/08/19 04:57:54;;;;;;;0.50;0.40;;;;;;;22.60;100.00;95127.69;5093612;28;20857;-56
2022/08/19 05:00:24;;;;;;;2.40;0.83;;;;;;;22.58;100.00;95112.97;5092969;28;20986;-56
2022/08/19 05:02:52;;;;;;;0.40;0.30;;;;;;;22.96;100.00;95145.56;5093113;28;20853;-56
2022/08/19 05:05:21;;;;;;;0.80;0.80;;;;;;;22.97;100.00;95143.66;5093220;28;20455;-56
2022/08/19 05:07:50;;;;;;;0.60;0.50;;;;;;;22.91;100.00;95139.63;5093349;28;20413;-56
2022/08/19 05:10:20;;;;;;;0.60;0.50;;;;;;;22.76;100.00;95143.94;5092801;28;20436;-55
2022/08/19 05:12:48;;;;;;;0.60;0.50;;;;;;;23.12;100.00;95148.25;5093056;28;20486;-57
2022/08/19 05:15:18;;;;;;;0.50;0.40;;;;;;;23.15;100.00;95150.22;5093247;28;20504;-57
2022/08/19 05:23:16;;;;;;;0.53;0.30;;;;;;;23.70;100.00;95144.50;5092901;28;20940;-56
2022/08/19 05:25:51;;;;;;;0.40;0.30;;;;;;;23.93;99.88;95147.28;5092888;28;20947;-56
2022/08/19 05:28:21;;;;;;;0.50;0.40;;;;;;;24.02;95.70;95143.19;5092803;28;20460;-55
2022/08/19 05:30:50;;;;;;;1.43;0.30;;;;;;;24.11;91.45;95134.84;5092799;28;20869;-55
2022/08/19 05:33:24;;;;;;;0.60;0.40;;;;;;;24.18;90.23;95131.50;5092721;28;20420;-55
2022/08/19 05:35:52;;;;;;;0.60;0.50;;;;;;;24.31;89.73;95135.63;5092333;28;20432;-55
2022/08/19 05:38:21;;;;;;;0.50;0.30;;;;;;;24.60;87.40;95129.53;5092763;28;20495;-56
2022/08/19 05:40:49;;;;;;;0.50;0.40;;;;;;;24.39;81.53;95131.88;5092805;28;20508;-55
2022/08/19 05:43:18;;;;;;;0.60;0.53;;;;;;;24.73;83.17;95128.19;5092959;28;20425;-55
2022/08/19 05:45:47;;;;;;;0.50;0.30;;;;;;;24.94;80.86;95138.63;5092256;28;20497;-55
2022/08/19 05:48:17;;;;;;;0.87;0.30;;;;;;;25.05;80.67;95134.91;5092525;28;21014;-54
2022/08/19 05:50:50;;;;;;;0.43;0.30;;;;;;;25.22;77.94;95126.25;5092449;28;20417;-54
2022/08/19 05:53:19;;;;;;;0.83;0.60;;;;;;;25.16;81.57;95122.28;5092464;28;20416;-56
2022/08/19 05:55:48;;;;;;;0.40;0.30;;;;;;;25.39;75.08;95092.38;5092331;28;20432;-55
2022/08/19 05:58:17;;;;;;;0.40;0.30;;;;;;;25.81;74.86;95125.47;5092185;28;20464;-55
2022/08/19 06:00:51;;;;;;;1.10;0.60;;;;;;;25.54;77.34;95112.34;5092131;28;20490;-56
2022/08/19 06:03:19;;;;;;;2.07;1.43;;;;;;;25.35;84.15;95126.03;5092175;28;20455;-55
2022/08/19 06:05:49;;;;;;;1.43;0.77;;;;;;;24.79;86.64;95117.88;5091675;28;20523;-55
2022/08/19 06:08:20;;;;;;;3.03;0.73;;;;;;;24.71;89.71;95111.53;5091994;28;20474;-55
2022/08/19 06:11:17;;;;;;;0.93;0.93;;;;;;;24.96;88.94;95126.25;5092264;28;20443;-56
2022/08/19 06:13:50;;;;;;;1.17;1.17;;;;;;;25.41;86.53;95127.25;5092096;28;20517;-56
2022/08/19 06:16:27;;;;;;;0.50;0.50;;;;;;;26.01;81.56;95126.06;5091663;28;20471;-56
2022/08/19 06:18:57;;;;;;;0.70;0.70;;;;;;;26.25;76.62;95122.09;5091444;28;21015;-56
2022/08/19 06:21:29;;;;;;;1.53;0.80;;;;;;;26.11;77.19;95119.22;5091606;28;20468;-56
2022/08/19 06:23:59;;;;;;;0.93;0.77;;;;;;;26.03;78.22;95118.38;5091741;28;20471;-56
2022/08/19 06:26:28;;;;;;;0.40;0.30;;;;;;;26.77;73.12;95110.16;5091753;28;20485;-56
2022/08/19 06:28:56;;;;;;;0.80;0.40;;;;;;;27.37;66.09;95114.06;5091578;28;20448;-57
2022/08/19 06:31:27;;;;;;;0.70;0.70;;;;;;;27.07;64.15;95116.19;5091454;28;20952;-56
2022/08/19 06:33:55;;;;;;;1.30;1.23;;;;;;;26.74;66.16;95121.78;5091953;28;20468;-57
2022/08/19 06:36:31;;;;;;;2.50;2.40;;;;;;;27.14;64.90;95116.25;5091826;28;20515;-57
2022/08/19 06:39:01;;;;;;;0.80;0.63;;;;;;;27.55;61.90;95114.94;5091492;28;20432;-57
2022/08/19 06:41:31;;;;;;;0.97;0.80;;;;;;;27.94;57.32;95114.31;5091508;28;20515;-57
2022/08/19 06:44:00;;;;;;;0.50;0.43;;;;;;;28.54;53.96;95117.22;5091419;28;21000;-57
2022/08/19 06:46:30;;;;;;;0.60;0.50;;;;;;;27.97;53.87;95117.06;5091846;28;20413;-57
2022/08/19 06:49:02;;;;;;;1.00;1.00;;;;;;;28.42;53.62;95095.75;5091355;28;20948;-56
2022/08/19 06:51:32;;;;;;;0.60;0.57;;;;;;;29.05;52.92;95112.16;5091445;28;20936;-56
2022/08/19 06:54:07;;;;;;;4.37;0.90;;;;;;;29.11;49.96;95116.03;5091374;28;20443;-55
2022/08/19 06:56:47;;;;;;;0.70;0.70;;;;;;;29.04;48.18;95109.81;5091379;28;20448;-56
2022/08/19 06:59:17;;;;;;;3.60;0.93;;;;;;;28.93;48.11;95113.34;5091369;28;20945;-55
2022/08/19 07:01:49;;;;;;;0.67;0.60;;;;;;;29.29;49.18;95103.19;5091326;28;20533;-56
2022/08/19 07:04:20;;;;;;;1.10;0.90;;;;;;;29.39;48.31;95102.38;5091177;28;20994;-56
2022/08/19 07:06:49;;;;;;;1.23;1.07;;;;;;;29.56;49.45;95098.00;5091349;28;20448;-57
2022/08/19 07:09:24;;;;;;;0.50;0.50;;;;;;;29.98;47.14;95100.59;5091626;28;20423;-57
2022/08/19 07:11:54;;;;;;;0.60;0.60;;;;;;;30.23;46.32;95097.75;5091409;28;20577;-54
2022/08/19 07:14:26;;;;;;;0.50;0.50;;;;;;;30.91;46.48;95093.38;5091489;28;20491;-55
2022/08/19 07:16:57;;;;;;;2.07;0.57;;;;;;;31.22;44.56;95095.00;5091438;28;20454;-55
2022/08/19 07:19:27;;;;;;;0.70;0.70;;;;;;;30.82;43.11;95060.16;5093740;28;20466;-55
2022/08/19 07:21:56;;;;;;;0.60;0.60;;;;;;;31.76;43.96;95097.97;5095064;28;20482;-56
2022/08/19 07:24:27;;;;;;;1.83;1.73;;;;;;;31.85;41.33;95099.03;5095316;28;20444;-56
2022/08/19 07:27:02;;;;;;;1.70;0.50;;;;;;;31.46;42.28;95100.66;5095010;28;20432;-55
2022/08/19 07:29:41;;;;;;;0.63;0.63;;;;;;;31.97;41.81;95101.25;5094937;28;21001;-56
2022/08/19 07:32:11;;;;;;;0.57;0.50;;;;;;;32.25;41.27;95091.88;5094849;28;20436;-56
2022/08/19 07:34:40;;;;;;;0.77;0.60;;;;;;;32.19;41.92;95092.72;5094744;28;20460;-55
2022/08/19 07:37:10;;;;;;;1.20;1.10;;;;;;;32.34;41.39;95100.34;5094734;28;20534;-56
2022/08/19 07:39:40;;;;;;;0.90;0.90;;;;;;;32.52;40.70;95094.63;5094640;28;20470;-56
2022/08/19 07:42:12;;;;;;;0.80;0.80;;;;;;;32.86;37.92;95087.03;5094687;28;20424;-56
2022/08/19 07:44:41;;;;;;;0.50;0.50;;;;;;;32.71;38.26;95088.47;5094656;28;20438;-56
2022/08/19 07:47:18;;;;;;;0.90;0.70;;;;;;;33.58;35.96;95079.88;5094588;28;20466;-56
2022/08/19 07:50:08;;;;;;;1.10;1.00;;;;;;;33.89;34.57;95085.94;5094622;28;20916;-56
2022/08/19 07:52:39;;;;;;;1.90;0.60;;;;;;;34.16;34.83;95083.03;5094640;28;20514;-56
2022/08/19 07:55:11;;;;;;;0.40;0.40;;;;;;;34.75;33.58;95082.88;5094965;28;20509;-56
2022/08/19 07:57:59;;;;;;;1.23;1.13;;;;;;;33.75;34.99;95078.75;5094320;28;20502;-56
2022/08/19 08:00:30;;;;;;;0.70;0.70;;;;;;;33.63;35.62;95076.63;5094581;28;20432;-55
2022/08/19 08:02:58;;;;;;;1.17;0.73;;;;;;;32.95;37.21;95070.00;5094523;28;20467;-55
2022/08/19 08:11:00;;;;;;;1.03;1.00;;;;;;;33.14;35.89;95072.81;5094281;28;20951;-55
2022/08/19 08:13:29;;;;;;;5.27;1.00;;;;;;;33.80;35.73;95070.00;5094595;28;20797;-55
2022/08/19 08:15:58;;;;;;;1.87;1.77;;;;;;;33.48;35.30;95069.84;5094494;28;20420;-55
2022/08/19 08:18:27;;;;;;;1.57;1.47;;;;;;;33.53;35.02;95066.59;5094143;28;20491;-55
2022/08/19 08:20:59;;;;;;;0.83;0.83;;;;;;;33.86;36.33;95062.81;5094406;28;20424;-55
2022/08/19 08:23:29;;;;;;;0.80;0.80;;;;;;;34.75;35.61;95061.63;5093986;28;20865;-55
2022/08/19 08:26:00;;;;;;;0.47;0.40;;;;;;;35.08;34.35;95049.41;5094386;28;20423;-55
2022/08/19 08:28:29;;;;;;;0.50;0.40;;;;;;;36.10;33.79;95054.03;5093801;28;20440;-55
2022/08/19 08:30:59;;;;;;;13.43;0.70;;;;;;;36.16;33.06;95055.03;5093759;28;20189;-55
2022/08/19 08:33:29;;;;;;;0.40;0.40;;;;;;;35.70;32.43;95030.78;5094186;28;20213;-51
2022/08/19 08:36:02;;;;;;;0.97;0.50;;;;;;;36.10;32.18;95051.28;5093857;28;20272;-51
2022/08/19 08:38:31;;;;;;;1.23;1.23;;;;;;;35.46;32.41;95046.00;5094024;28;20608;-51
2022/08/19 08:41:19;;;;;;;0.50;0.50;;;;;;;36.55;31.51;95042.03;5094131;28;20190;-51
2022/08/19 08:43:50;;;;;;;0.47;0.47;;;;;;;36.54;31.74;95034.97;5093645;28;20221;-50
2022/08/19 08:46:23;;;;;;;1.27;1.17;;;;;;;35.38;33.50;95036.38;5093452;28;20224;-51
2022/08/19 08:49:07;;;;;;;0.93;0.57;;;;;;;35.08;33.42;95041.13;5093903;28;20183;-52
2022/08/19 08:51:43;;;;;;;0.80;0.80;;;;;;;35.57;33.59;95030.00;5093743;28;20196;-52
2022/08/19 08:54:18;;;;;;;0.43;0.43;;;;;;;36.62;32.00;95025.25;5093603;28;20226;-51
2022/08/19 08:56:50;;;;;;;1.07;0.93;;;;;;;36.38;33.68;95024.03;5093368;28;20690;-51
2022/08/19 08:59:24;;;;;;;0.77;0.77;;;;;;;36.62;33.64;95022.47;5093673;28;20623;-51
2022/08/19 09:01:53;;;;;;;1.23;1.23;;;;;;;37.17;31.63;95013.50;5093268;28;20635;-66
2022/08/19 09:04:22;;;;;;;0.90;0.90;;;;;;;37.58;30.46;95008.94;5093246;28;20244;-65
2022/08/19 09:06:56;;;;;;;0.57;0.40;;;;;;;38.07;29.58;95002.34;5093273;28;20627;-64
2022/08/19 09:09:32;;;;;;;0.85;0.60;;;;;;;39.08;28.39;95006.19;5093035;28;20628;-64
2022/08/19 09:12:11;;;;;;;0.60;0.38;;;;;;;38.39;28.38;94939.38;5093368;28;20354;-65
2022/08/19 09:14:49;;;;;;;2.13;0.90;;;;;;;38.12;29.13;94981.59;5093161;28;20683;-65
2022/08/19 09:17:30;;;;;;;0.55;0.55;;;;;;;38.62;31.23;94991.47;5093401;28;20194;-64
2022/08/19 09:20:06;;;;;;;0.70;0.70;;;;;;;37.70;29.59;94988.75;5092698;28;20274;-64
2022/08/19 09:22:37;;;;;;;0.57;0.57;;;;;;;36.83;31.02;94972.06;5092837;28;20248;-64
2022/08/19 09:25:07;;;;;;;0.70;0.70;;;;;;;37.53;30.35;94977.09;5093280;28;20279;-64
2022/08/19 09:27:39;;;;;;;0.70;0.70;;;;;;;38.06;29.20;94972.31;5092906;28;20197;-64
2022/08/19 09:30:14;;;;;;;0.50;0.50;;;;;;;38.38;29.24;94969.06;5093186;28;20245;-64
2022/08/19 09:32:44;;;;;;;4.43;0.57;;;;;;;38.66;28.10;94976.22;5092653;28;20739;-63
2022/08/19 09:35:15;;;;;;;0.60;0.60;;;;;;;39.80;26.66;94955.44;5092991;28;20192;-63
2022/08/19 09:37:43;;;;;;;0.32;0.30;;;;;;;39.41;26.77;94957.22;5092740;28;20278;-63
2022/08/19 09:40:13;;;;;;;1.42;0.88;;;;;;;37.98;27.85;94935.84;5092253;28;20251;-63
2022/08/19 09:42:46;;;;;;;0.40;0.40;;;;;;;39.09;28.11;94950.25;5091905;28;20200;-64
2022/08/19 09:45:20;;;;;;;0.43;0.43;;;;;;;38.59;28.28;94953.59;5092886;28;20226;-64
2022/08/19 09:47:49;;;;;;;0.65;0.65;;;;;;;39.04;30.69;94941.81;5092432;28;20638;-64
2022/08/19 09:50:18;;;;;;;0.52;0.50;;;;;;;39.17;26.96;94948.75;5092322;28;20196;-67
2022/08/19 09:52:47;;;;;;;0.63;0.63;;;;;;;39.02;26.31;94947.81;5092122;28;20223;-68
2022/08/19 09:55:26;;;;;;;2.58;0.70;;;;;;;38.91;25.92;94944.75;5092712;28;20199;-69
2022/08/19 09:58:02;;;;;;;0.45;0.45;;;;;;;38.88;26.64;94931.81;5092564;28;20187;-68
2022/08/19 10:00:31;;;;;;;0.47;0.43;;;;;;;39.06;26.65;94934.56;5092335;28;20228;-68
2022/08/19 10:03:00;;;;;;;0.60;0.60;;;;;;;39.87;25.29;94921.81;5092106;28;20696;-68
2022/08/19 10:05:49;;;;;;;0.30;0.30;;;;;;;40.04;26.82;94922.22;5092350;28;20248;-68
2022/08/19 10:08:19;;;;;;;0.65;0.65;;;;;;;40.44;26.97;94911.50;5092401;28;20189;-70
2022/08/19 10:10:48;;;;;;;3.72;0.65;;;;;;;41.23;23.40;94909.88;5092171;28;20627;-70
2022/08/19 10:13:25;;;;;;;0.40;0.40;;;;;;;41.49;20.94;94904.53;5092264;28;20188;-70
2022/08/19 10:15:56;;;;;;;0.32;0.32;;;;;;;40.93;22.32;94900.72;5092102;28;20271;-68
2022/08/19 10:18:25;;;;;;;0.40;0.40;;;;;;;41.78;23.10;94896.94;5091657;28;20237;-72
2022/08/19 10:21:07;;;;;;;0.60;0.52;;;;;;;40.98;22.01;94888.94;5092384;28;20196;-72
2022/08/19 10:23:37;;;;;;;0.50;0.50;;;;;;;41.27;22.30;94895.75;5092264;28;20362;-72
2022/08/19 10:26:06;;;;;;;0.30;0.30;;;;;;;42.02;22.09;94882.91;5092392;28;20600;-70
2022/08/19 10:28:38;;;;;;;0.40;0.40;;;;;;;40.94;20.20;94885.56;5091914;28;20663;-72
2022/08/19 10:31:07;;;;;;;0.50;0.40;;;;;;;42.09;18.58;94876.16;5091960;28;20749;-74
2022/08/19 10:33:37;;;;;;;0.30;0.30;;;;;;;42.54;17.84;94872.75;5092399;28;20273;-74
2022/08/19 10:36:23;;;;;;;0.40;0.40;;;;;;;41.51;20.50;94840.81;5092056;28;20651;-76
2022/08/19 10:38:54;;;;;;;0.93;0.93;;;;;;;41.62;19.90;94869.59;5092056;28;20225;-75
2022/08/19 10:41:28;;;;;;;0.60;0.60;;;;;;;41.38;20.61;94868.94;5091727;28;20190;-71
2022/08/19 10:44:01;;;;;;;0.85;0.85;;;;;;;41.00;20.86;94866.19;5091509;28;20259;-71
2022/08/19 10:46:32;;;;;;;0.40;0.40;;;;;;;41.76;20.03;94870.84;5092647;28;20223;-72
2022/08/19 10:49:02;;;;;;;0.40;0.38;;;;;;;41.40;21.30;94857.31;5091767;28;20194;-71
2022/08/19 10:54:17;;;;;;;0.50;0.40;;;;;;;41.47;20.16;94849.34;5096156;28;20429;-75
2022/08/19 10:56:58;;;;;;;0.30;0.20;;;;;;;42.03;21.27;94851.00;5098120;28;20189;-75
2022/08/19 10:59:29;;;;;;;0.32;0.30;;;;;;;42.17;22.05;94850.22;5096307;28;20250;-76
2022/08/19 11:02:07;;;;;;;0.38;0.30;;;;;;;42.18;20.65;94792.47;5096714;28;20648;-76
2022/08/19 11:04:35;;;;;;;0.20;0.20;;;;;;;43.56;17.73;94843.44;5096226;28;20634;-76
2022/08/19 11:07:05;;;;;;;9.63;0.68;;;;;;;42.62;16.95;94843.22;5096648;28;20195;-71
2022/08/19 11:09:39;;;;;;;0.50;0.40;;;;;;;42.12;18.05;94833.44;5095559;28;20221;-72
2022/08/19 11:12:09;;;;;;;0.25;0.22;;;;;;;42.92;17.64;94829.88;5095308;28;20189;-73
2022/08/19 11:14:40;;;;;;;0.45;0.45;;;;;;;42.33;18.09;94832.94;5095096;28;20203;-72
2022/08/19 11:17:08;;;;;;;0.63;0.45;;;;;;;41.91;19.18;94826.25;5094993;28;20865;-73
2022/08/19 11:19:37;;;;;;;0.40;0.40;;;;;;;42.89;18.42;94812.09;5094559;28;20777;-75
2022/08/19 11:22:08;;;;;;;1.08;0.40;;;;;;;43.47;18.55;94815.69;5095482;28;20222;-76
2022/08/19 11:24:37;;;;;;;0.30;0.30;;;;;;;43.90;17.32;94819.34;5095186;28;20191;-71
2022/08/19 11:27:09;;;;;;;24.20;0.57;;;;;;;43.54;17.45;94815.25;5095100;28;20278;-70
2022/08/19 11:29:40;;;;;;;0.30;0.30;;;;;;;43.33;17.58;94800.63;5094858;28;20198;-70
2022/08/19 11:32:12;;;;;;;0.30;0.30;;;;;;;43.68;18.49;94805.19;5095835;28;20257;-73
2022/08/19 11:34:41;;;;;;;0.40;0.40;;;;;;;42.96;17.98;94803.31;5106651;28;20222;-78
2022/08/19 11:37:09;;;;;;;0.50;0.50;;;;;;;42.88;18.28;94805.00;5094757;28;20193;-70
2022/08/19 11:39:38;;;;;;;2.05;0.60;;;;;;;41.87;18.66;94790.28;5094796;28;20308;-70
2022/08/19 11:42:54;;;;;;;0.40;0.40;;;;;;;41.16;18.85;94802.53;5095003;28;20188;-55
2022/08/19 11:44:57;;;;;;;0.30;0.30;;;;;;;42.24;18.82;94787.75;5094298;28;20235;-59
2022/08/19 11:47:26;;;;;;;0.50;0.50;;;;;;;43.01;18.21;94785.13;5094677;28;20617;-59
2022/08/19 11:49:55;;;;;;;0.50;0.50;;;;;;;42.67;18.99;94755.34;5094456;28;20642;-60
2022/08/19 11:52:23;;;;;;;0.63;0.57;;;;;;;42.86;18.34;94781.66;5094726;28;20225;-60
2022/08/19 11:54:52;;;;;;;0.30;0.30;;;;;;;43.47;17.25;94780.19;5094482;28;20246;-59
2022/08/19 11:57:20;;;;;;;0.70;0.70;;;;;;;42.59;17.76;94757.03;5094447;28;20233;-60
2022/08/19 11:59:52;;;;;;;0.43;0.43;;;;;;;42.86;19.30;94770.50;5094238;28;20236;-59
2022/08/19 12:02:23;;;;;;;0.40;0.40;;;;;;;43.54;17.66;94768.56;5094827;28;20227;-59
2022/08/19 12:04:51;;;;;;;0.30;0.30;;;;;;;43.42;17.73;94749.44;5093450;28;20286;-59
2022/08/19 12:07:19;;;;;;;0.40;0.40;;;;;;;42.60;18.88;94755.78;5094464;28;20272;-60
2022/08/19 12:09:48;;;;;;;0.30;0.30;;;;;;;43.28;17.81;94747.53;5094070;28;20234;-60